createdAt,value
2018-10-02T00:00:32.126Z,6.94
2018-10-02T00:01:40.191Z,6.79
2018-10-02T00:02:48.240Z,6.76
2018-10-02T00:03:56.305Z,6.76
2018-10-02T00:05:04.364Z,6.66
2018-10-02T00:06:16.852Z,6.51
2018-10-02T00:07:24.927Z,6.52
2018-10-02T00:08:32.962Z,6.44
2018-10-02T00:09:41.057Z,6.37
2018-10-02T00:10:49.132Z,6.30
2018-10-02T00:11:57.172Z,6.19
2018-10-02T00:13:05.253Z,6.18
2018-10-02T00:14:13.285Z,6.06
2018-10-02T00:15:21.347Z,6.06
2018-10-02T00:16:29.425Z,5.99
2018-10-02T00:17:37.477Z,5.97
2018-10-02T00:18:45.548Z,5.91
2018-10-02T00:19:53.603Z,5.85
2018-10-02T00:23:27.684Z,5.74
2018-10-02T00:24:38.365Z,5.58
2018-10-02T00:25:49.040Z,5.61
2018-10-02T00:26:57.090Z,5.49
2018-10-02T00:28:05.182Z,5.53
2018-10-02T00:29:13.195Z,5.38
2018-10-02T00:30:21.258Z,5.30
2018-10-02T00:31:29.409Z,5.33
2018-10-02T00:32:37.404Z,5.25
2018-10-02T00:33:45.455Z,5.20
2018-10-02T00:34:53.516Z,5.20
2018-10-02T00:36:01.574Z,5.15
2018-10-02T00:37:09.615Z,5.06
2018-10-02T00:38:17.690Z,5.03
2018-10-02T00:39:25.743Z,5.09
2018-10-02T00:40:33.809Z,4.92
2018-10-02T00:41:41.885Z,4.91
2018-10-02T00:42:49.952Z,4.86
2018-10-02T00:43:57.994Z,4.86
2018-10-02T00:45:06.054Z,4.84
2018-10-02T00:46:14.115Z,4.78
2018-10-02T00:47:22.174Z,4.70
2018-10-02T00:48:30.241Z,4.72
2018-10-02T00:49:38.278Z,4.72
2018-10-02T00:50:46.362Z,4.63
2018-10-02T00:51:54.410Z,4.55
2018-10-02T00:53:02.467Z,4.63
2018-10-02T00:54:10.530Z,4.59
2018-10-02T00:55:18.597Z,4.45
2018-10-02T00:56:26.669Z,4.44
2018-10-02T00:57:34.730Z,4.40
2018-10-02T00:58:42.789Z,4.40
2018-10-02T00:59:52.683Z,4.32
2018-10-02T01:01:00.712Z,4.30
2018-10-02T01:02:08.773Z,4.18
2018-10-02T01:03:16.856Z,4.16
2018-10-02T01:04:24.879Z,4.23
2018-10-02T01:05:32.941Z,4.12
2018-10-02T01:06:41.022Z,4.09
2018-10-02T01:07:49.077Z,4.08
2018-10-02T01:08:57.139Z,4.09
2018-10-02T01:10:05.184Z,4.02
2018-10-02T01:11:13.235Z,3.90
2018-10-02T01:12:35.474Z,3.91
2018-10-02T01:13:30.767Z,3.91
2018-10-02T01:14:38.850Z,3.79
2018-10-02T01:15:46.886Z,3.87
2018-10-02T01:16:54.966Z,3.80
2018-10-02T01:18:03.003Z,3.76
2018-10-02T01:19:11.076Z,3.69
2018-10-02T01:20:19.150Z,3.72
2018-10-02T01:21:27.186Z,3.65
2018-10-02T01:22:35.258Z,3.66
2018-10-02T01:23:43.315Z,3.58
2018-10-02T01:24:51.371Z,3.62
2018-10-02T01:25:59.441Z,3.47
2018-10-02T01:27:07.499Z,3.54
2018-10-02T01:28:15.550Z,3.43
2018-10-02T01:29:23.612Z,3.40
2018-10-02T01:30:31.676Z,3.33
2018-10-02T01:31:39.760Z,3.42
2018-10-02T01:32:47.810Z,3.39
2018-10-02T01:33:55.859Z,3.36
2018-10-02T01:35:03.931Z,3.24
2018-10-02T01:36:11.976Z,3.23
2018-10-02T01:37:20.040Z,3.31
2018-10-02T01:38:28.111Z,3.28
2018-10-02T01:39:36.171Z,3.28
2018-10-02T01:40:44.227Z,3.29
2018-10-02T01:41:52.280Z,3.24
2018-10-02T01:43:00.337Z,3.28
2018-10-02T01:44:08.408Z,3.32
2018-10-02T01:45:16.499Z,3.32
2018-10-02T01:46:24.520Z,3.35
2018-10-02T01:47:32.574Z,3.40
2018-10-02T01:48:40.643Z,3.52
2018-10-02T01:49:48.701Z,3.50
2018-10-02T01:50:56.753Z,3.57
2018-10-02T01:52:04.807Z,3.66
2018-10-02T01:53:12.846Z,3.68
2018-10-02T01:54:20.966Z,3.73
2018-10-02T01:55:28.988Z,3.69
2018-10-02T01:56:37.090Z,3.78
2018-10-02T01:57:45.105Z,3.75
2018-10-02T01:58:53.146Z,3.73
2018-10-02T02:00:01.238Z,3.73
2018-10-02T02:01:09.302Z,3.76
2018-10-02T02:02:17.368Z,3.75
2018-10-02T02:03:25.420Z,3.73
2018-10-02T02:04:33.467Z,3.72
2018-10-02T02:05:41.548Z,3.66
2018-10-02T02:06:49.595Z,3.66
2018-10-02T02:07:57.676Z,3.62
2018-10-02T02:09:05.720Z,3.57
2018-10-02T02:10:13.774Z,3.61
2018-10-02T02:11:21.824Z,3.60
2018-10-02T02:12:29.885Z,3.47
2018-10-02T02:13:37.946Z,3.43
2018-10-02T02:14:46.019Z,3.48
2018-10-02T02:15:54.075Z,3.54
2018-10-02T02:17:02.130Z,3.33
2018-10-02T02:18:10.178Z,3.40
2018-10-02T02:19:18.235Z,3.36
2018-10-02T02:20:26.313Z,3.31
2018-10-02T02:21:34.375Z,3.28
2018-10-02T02:22:42.432Z,3.28
2018-10-02T02:23:50.480Z,3.20
2018-10-02T02:24:58.563Z,3.17
2018-10-02T02:26:06.593Z,3.14
2018-10-02T02:27:14.703Z,3.14
2018-10-02T02:28:22.731Z,3.15
2018-10-02T02:29:30.778Z,3.03
2018-10-02T02:30:38.867Z,2.96
2018-10-02T02:31:46.893Z,3.00
2018-10-02T02:32:54.955Z,2.90
2018-10-02T02:34:03.035Z,3.00
2018-10-02T02:35:11.076Z,2.93
2018-10-02T02:36:19.138Z,2.89
2018-10-02T02:37:27.291Z,2.89
2018-10-02T02:38:35.255Z,2.85
2018-10-02T02:39:43.287Z,2.87
2018-10-02T02:40:51.386Z,2.74
2018-10-02T02:41:59.444Z,2.71
2018-10-02T02:43:07.495Z,2.79
2018-10-02T02:44:15.570Z,2.69
2018-10-02T02:45:23.615Z,2.74
2018-10-02T02:46:31.688Z,2.71
2018-10-02T02:47:39.749Z,2.56
2018-10-02T02:48:47.788Z,2.60
2018-10-02T02:49:55.864Z,2.52
2018-10-02T02:51:03.906Z,2.48
2018-10-02T02:52:12.008Z,2.54
2018-10-02T02:53:20.042Z,2.54
2018-10-02T02:54:28.103Z,2.45
2018-10-02T02:55:36.164Z,2.39
2018-10-02T02:56:44.213Z,2.34
2018-10-02T02:57:52.288Z,2.28
2018-10-02T02:59:00.357Z,2.28
2018-10-02T03:00:08.382Z,2.36
2018-10-02T03:01:16.444Z,2.28
2018-10-02T03:02:24.530Z,2.27
2018-10-02T03:03:32.589Z,2.18
2018-10-02T03:04:40.633Z,2.27
2018-10-02T03:05:48.710Z,2.24
2018-10-02T03:06:56.771Z,2.20
2018-10-02T03:08:04.814Z,2.17
2018-10-02T03:09:12.848Z,2.17
2018-10-02T03:10:20.944Z,2.23
2018-10-02T03:11:29.013Z,2.18
2018-10-02T03:12:37.061Z,2.10
2018-10-02T03:13:45.091Z,2.06
2018-10-02T03:14:53.158Z,2.09
2018-10-02T03:16:01.266Z,2.02
2018-10-02T03:17:09.287Z,2.09
2018-10-02T03:18:17.345Z,2.12
2018-10-02T03:19:25.397Z,2.00
2018-10-02T03:20:33.439Z,2.05
2018-10-02T03:21:41.620Z,2.03
2018-10-02T03:22:49.592Z,1.95
2018-10-02T03:23:57.643Z,1.98
2018-10-02T03:25:05.710Z,1.95
2018-10-02T03:26:13.762Z,2.02
2018-10-02T03:27:21.831Z,1.87
2018-10-02T03:28:29.874Z,2.00
2018-10-02T03:29:37.938Z,2.07
2018-10-02T03:30:45.996Z,2.03
2018-10-02T03:31:54.059Z,2.03
2018-10-02T03:33:02.141Z,2.07
2018-10-02T03:34:10.177Z,1.99
2018-10-02T03:35:18.249Z,1.95
2018-10-02T03:36:26.294Z,2.05
2018-10-02T03:37:34.367Z,2.06
2018-10-02T03:38:42.424Z,1.90
2018-10-02T03:39:50.482Z,2.02
2018-10-02T03:40:58.529Z,2.05
2018-10-02T03:42:06.594Z,1.91
2018-10-02T03:43:14.642Z,1.90
2018-10-02T03:44:22.718Z,1.95
2018-10-02T03:45:30.764Z,1.88
2018-10-02T03:46:38.834Z,1.90
2018-10-02T03:47:46.892Z,1.87
2018-10-02T03:48:54.991Z,1.86
2018-10-02T03:50:02.988Z,1.77
2018-10-02T03:51:11.046Z,1.86
2018-10-02T03:52:19.104Z,1.79
2018-10-02T03:53:27.181Z,1.76
2018-10-02T03:54:35.235Z,1.70
2018-10-02T03:55:43.316Z,1.84
2018-10-02T03:56:51.357Z,1.76
2018-10-02T03:57:59.404Z,1.81
2018-10-02T03:59:07.476Z,1.63
2018-10-02T04:00:15.531Z,1.68
2018-10-02T04:01:24.065Z,1.76
2018-10-02T04:02:31.658Z,1.68
2018-10-02T04:03:39.875Z,1.80
2018-10-02T04:04:47.751Z,1.62
2018-10-02T04:05:55.853Z,1.65
2018-10-02T04:07:03.898Z,1.68
2018-10-02T04:08:11.939Z,1.65
2018-10-02T04:09:19.980Z,1.68
2018-10-02T04:10:28.036Z,1.69
2018-10-02T04:11:36.809Z,1.65
2018-10-02T04:12:44.162Z,1.66
2018-10-02T04:13:52.217Z,1.66
2018-10-02T04:15:00.263Z,1.65
2018-10-02T04:16:08.338Z,1.63
2018-10-02T04:17:16.428Z,1.60
2018-10-02T04:18:24.456Z,1.63
2018-10-02T04:19:32.501Z,1.62
2018-10-02T04:20:40.767Z,1.63
2018-10-02T04:21:49.067Z,1.66
2018-10-02T04:22:56.689Z,1.62
2018-10-02T04:24:04.746Z,1.60
2018-10-02T04:25:12.792Z,1.65
2018-10-02T04:26:20.860Z,1.63
2018-10-02T04:27:29.349Z,1.65
2018-10-02T04:28:36.959Z,1.60
2018-10-02T04:29:45.046Z,1.60
2018-10-02T04:30:53.265Z,1.58
2018-10-02T04:32:01.140Z,1.59
2018-10-02T04:33:09.204Z,1.60
2018-10-02T04:34:17.300Z,1.58
2018-10-02T04:35:25.580Z,1.51
2018-10-02T04:36:33.386Z,1.52
2018-10-02T04:37:41.444Z,1.47
2018-10-02T04:38:49.513Z,1.51
2018-10-02T04:39:58.243Z,1.48
2018-10-02T04:41:05.630Z,1.47
2018-10-02T04:42:13.677Z,1.59
2018-10-02T04:43:22.213Z,1.44
2018-10-02T04:44:29.770Z,1.51
2018-10-02T04:45:38.456Z,1.54
2018-10-02T04:46:45.960Z,1.47
2018-10-02T04:47:53.955Z,1.45
2018-10-02T04:49:02.016Z,1.48
2018-10-02T04:50:10.178Z,1.54
2018-10-02T04:51:18.487Z,1.54
2018-10-02T04:52:26.195Z,1.45
2018-10-02T04:53:34.514Z,1.50
2018-10-02T04:54:42.309Z,1.48
2018-10-02T04:55:50.447Z,1.50
2018-10-02T04:56:58.436Z,1.59
2018-10-02T04:58:06.574Z,1.60
2018-10-02T04:59:14.530Z,1.62
2018-10-02T05:00:22.611Z,1.52
2018-10-02T05:01:31.254Z,1.60
2018-10-02T05:02:38.701Z,1.58
2018-10-02T05:03:46.785Z,1.58
2018-10-02T05:04:54.835Z,1.52
2018-10-02T05:06:02.870Z,1.51
2018-10-02T05:07:10.923Z,1.55
2018-10-02T05:08:19.020Z,1.54
2018-10-02T05:09:27.065Z,1.51
2018-10-02T05:10:35.128Z,1.48
2018-10-02T05:11:43.160Z,1.65
2018-10-02T05:12:51.233Z,1.58
2018-10-02T05:13:59.326Z,1.55
2018-10-02T05:15:07.354Z,1.54
2018-10-02T05:16:15.416Z,1.54
2018-10-02T05:17:23.487Z,1.65
2018-10-02T05:18:31.525Z,1.62
2018-10-02T05:19:39.591Z,1.62
2018-10-02T05:20:47.772Z,1.68
2018-10-02T05:21:55.712Z,1.62
2018-10-02T05:23:03.755Z,1.62
2018-10-02T05:24:11.820Z,1.70
2018-10-02T05:25:19.881Z,1.69
2018-10-02T05:26:27.940Z,1.69
2018-10-02T05:27:36.041Z,1.69
2018-10-02T05:28:44.059Z,1.72
2018-10-02T05:29:52.130Z,1.77
2018-10-02T05:31:00.172Z,1.72
2018-10-02T05:32:08.240Z,1.73
2018-10-02T05:33:16.294Z,1.84
2018-10-02T05:34:24.347Z,1.80
2018-10-02T05:35:32.554Z,1.77
2018-10-02T05:36:40.468Z,1.81
2018-10-02T05:37:48.536Z,1.90
2018-10-02T05:38:56.582Z,1.90
2018-10-02T05:40:04.654Z,1.87
2018-10-02T05:41:12.720Z,1.86
2018-10-02T05:42:20.779Z,1.90
2018-10-02T05:43:28.816Z,1.90
2018-10-02T05:44:36.871Z,1.99
2018-10-02T05:45:44.929Z,1.99
2018-10-02T05:46:52.968Z,1.93
2018-10-02T05:48:01.059Z,1.95
2018-10-02T05:49:09.130Z,2.06
2018-10-02T05:50:17.169Z,1.99
2018-10-02T05:51:25.230Z,1.99
2018-10-02T05:52:33.264Z,2.03
2018-10-02T05:53:41.336Z,2.09
2018-10-02T05:54:49.411Z,1.95
2018-10-02T05:55:57.458Z,2.00
2018-10-02T05:57:05.551Z,2.05
2018-10-02T05:58:13.602Z,2.05
2018-10-02T05:59:21.661Z,2.16
2018-10-02T06:00:29.697Z,2.14
2018-10-02T06:01:37.770Z,2.23
2018-10-02T06:02:45.819Z,2.25
2018-10-02T06:03:53.983Z,2.27
2018-10-02T06:05:01.955Z,2.30
2018-10-02T06:06:09.996Z,2.27
2018-10-02T06:07:18.053Z,2.41
2018-10-02T06:08:26.123Z,2.31
2018-10-02T06:09:34.178Z,2.31
2018-10-02T06:10:42.239Z,2.30
2018-10-02T06:11:50.283Z,2.38
2018-10-02T06:12:58.360Z,2.35
2018-10-02T06:14:06.412Z,2.35
2018-10-02T06:15:14.476Z,2.49
2018-10-02T06:16:22.528Z,2.39
2018-10-02T06:17:30.596Z,2.53
2018-10-02T06:18:38.674Z,2.64
2018-10-02T06:19:46.713Z,2.63
2018-10-02T06:20:54.766Z,2.69
2018-10-02T06:22:02.837Z,2.71
2018-10-02T06:23:10.898Z,2.69
2018-10-02T06:24:18.948Z,2.84
2018-10-02T06:25:27.005Z,2.96
2018-10-02T06:26:35.072Z,2.96
2018-10-02T06:27:43.117Z,3.10
2018-10-02T06:28:51.201Z,3.35
2018-10-02T06:29:59.279Z,3.39
2018-10-02T06:31:07.298Z,3.60
2018-10-02T06:32:15.374Z,3.70
2018-10-02T06:33:23.446Z,3.75
2018-10-02T06:34:31.514Z,3.80
2018-10-02T06:35:39.559Z,3.88
2018-10-02T06:36:47.611Z,3.84
2018-10-02T06:37:55.703Z,4.08
2018-10-02T06:39:03.836Z,4.12
2018-10-02T06:40:11.790Z,4.11
2018-10-02T06:41:19.841Z,4.23
2018-10-02T06:42:27.994Z,4.32
2018-10-02T06:43:36.022Z,4.32
2018-10-02T06:44:44.154Z,4.47
2018-10-02T06:45:52.090Z,4.44
2018-10-02T06:47:00.170Z,4.58
2018-10-02T06:48:08.218Z,4.60
2018-10-02T06:49:16.290Z,4.67
2018-10-02T06:50:24.389Z,4.67
2018-10-02T06:51:32.612Z,4.80
2018-10-02T06:52:40.785Z,4.77
2018-10-02T06:53:48.527Z,4.86
2018-10-02T06:54:56.599Z,4.88
2018-10-02T06:56:04.643Z,4.84
2018-10-02T06:57:12.740Z,4.92
2018-10-02T06:58:20.783Z,4.97
2018-10-02T06:59:28.843Z,4.91
2018-10-02T07:00:36.953Z,5.03
2018-10-02T07:01:44.954Z,5.04
2018-10-02T07:02:53.017Z,5.07
2018-10-02T07:04:01.074Z,5.13
2018-10-02T07:05:09.145Z,5.13
2018-10-02T07:06:17.199Z,5.17
2018-10-02T07:07:25.267Z,5.20
2018-10-02T07:08:33.328Z,5.28
2018-10-02T07:09:41.372Z,5.25
2018-10-02T07:10:49.439Z,5.39
2018-10-02T07:11:57.495Z,5.54
2018-10-02T07:13:05.573Z,5.74
2018-10-02T07:14:13.628Z,6.01
2018-10-02T07:15:21.683Z,6.33
2018-10-02T07:16:29.751Z,6.79
2018-10-02T07:17:37.906Z,7.16
2018-10-02T07:18:45.868Z,7.53
2018-10-02T07:19:53.932Z,7.87
2018-10-02T07:21:02.101Z,8.26
2018-10-02T07:22:10.055Z,8.59
2018-10-02T07:23:18.133Z,8.80
2018-10-02T07:24:26.219Z,8.95
2018-10-02T07:25:34.270Z,9.01
2018-10-02T07:26:42.409Z,9.02
2018-10-02T07:27:50.508Z,8.99
2018-10-02T07:28:58.484Z,8.92
2018-10-02T07:30:06.503Z,8.89
2018-10-02T07:31:14.570Z,8.95
2018-10-02T07:32:22.729Z,8.84
2018-10-02T07:33:30.700Z,8.80
2018-10-02T07:34:38.796Z,8.73
2018-10-02T07:35:46.857Z,8.66
2018-10-02T07:36:54.955Z,8.79
2018-10-02T07:38:02.955Z,8.76
2018-10-02T07:39:11.034Z,8.66
2018-10-02T07:40:19.083Z,8.65
2018-10-02T07:41:27.204Z,8.68
2018-10-02T07:42:35.223Z,8.70
2018-10-02T07:43:43.282Z,8.63
2018-10-02T07:44:51.400Z,8.43
2018-10-02T07:45:59.410Z,8.37
2018-10-02T07:47:07.474Z,8.44
2018-10-02T07:48:15.586Z,8.47
2018-10-02T07:49:23.613Z,8.50
2018-10-02T07:50:31.719Z,8.52
2018-10-02T07:51:39.765Z,8.59
2018-10-02T07:52:47.812Z,8.65
2018-10-02T07:53:55.938Z,8.61
2018-10-02T07:55:03.930Z,8.74
2018-10-02T07:56:11.990Z,8.71
2018-10-02T07:57:20.081Z,8.68
2018-10-02T07:58:28.119Z,8.79
2018-10-02T07:59:36.291Z,8.71
2018-10-02T08:00:44.263Z,8.76
2018-10-02T08:01:52.352Z,8.66
2018-10-02T08:03:00.458Z,8.62
2018-10-02T08:04:08.464Z,8.66
2018-10-02T08:05:16.654Z,8.63
2018-10-02T08:06:24.629Z,8.68
2018-10-02T08:07:32.639Z,8.61
2018-10-02T08:08:40.791Z,8.63
2018-10-02T08:09:48.779Z,8.56
2018-10-02T08:10:56.836Z,8.56
2018-10-02T08:12:04.953Z,8.50
2018-10-02T08:13:12.936Z,8.45
2018-10-02T08:14:21.035Z,8.53
2018-10-02T08:15:29.104Z,8.50
2018-10-02T08:16:37.153Z,8.48
2018-10-02T08:17:45.548Z,8.45
2018-10-02T08:18:53.266Z,8.53
2018-10-02T08:20:01.406Z,8.58
2018-10-02T08:21:09.438Z,8.44
2018-10-02T08:22:17.482Z,8.58
2018-10-02T08:23:25.595Z,8.58
2018-10-02T08:24:33.607Z,8.55
2018-10-02T08:25:41.678Z,8.59
2018-10-02T08:26:49.810Z,8.55
2018-10-02T08:27:57.801Z,8.59
2018-10-02T08:29:05.862Z,8.55
2018-10-02T08:30:14.034Z,8.58
2018-10-02T08:31:21.988Z,8.61
2018-10-02T08:32:30.221Z,8.55
2018-10-02T08:33:38.127Z,8.47
2018-10-02T08:34:46.179Z,8.44
2018-10-02T08:35:54.324Z,8.53
2018-10-02T08:37:02.305Z,8.55
2018-10-02T08:38:10.383Z,8.50
2018-10-02T08:39:18.448Z,8.68
2018-10-02T08:40:26.493Z,8.68
2018-10-02T08:41:34.575Z,8.76
2018-10-02T08:42:42.622Z,8.80
2018-10-02T08:43:50.755Z,9.02
2018-10-02T08:44:58.781Z,9.13
2018-10-02T08:46:06.827Z,9.29
2018-10-02T08:47:14.921Z,9.32
2018-10-02T08:48:22.957Z,9.57
2018-10-02T08:49:31.032Z,9.68
2018-10-02T08:50:39.124Z,9.84
2018-10-02T08:51:47.221Z,10.05
2018-10-02T08:52:55.233Z,9.99
2018-10-02T08:54:03.325Z,10.17
2018-10-02T08:55:11.349Z,10.26
2018-10-02T08:56:19.399Z,10.09
2018-10-02T08:57:27.492Z,10.14
2018-10-02T08:58:35.557Z,10.18
2018-10-02T08:59:43.605Z,10.18
2018-10-02T09:00:51.652Z,10.15
2018-10-02T09:01:59.751Z,10.22
2018-10-02T09:03:07.814Z,10.11
2018-10-02T09:04:15.857Z,9.97
2018-10-02T09:05:23.950Z,10.11
2018-10-02T09:06:32.089Z,10.11
2018-10-02T09:07:40.067Z,10.04
2018-10-02T09:08:48.146Z,9.99
2018-10-02T09:09:56.206Z,9.99
2018-10-02T09:11:04.268Z,10.14
2018-10-02T09:12:12.335Z,10.11
2018-10-02T09:13:20.401Z,10.08
2018-10-02T09:14:28.471Z,9.96
2018-10-02T09:15:36.579Z,10.14
2018-10-02T09:16:44.797Z,10.15
2018-10-02T09:17:52.673Z,10.11
2018-10-02T09:19:00.808Z,10.15
2018-10-02T09:20:08.797Z,10.09
2018-10-02T09:21:16.857Z,10.17
2018-10-02T09:22:24.921Z,10.11
2018-10-02T09:23:32.973Z,10.32
2018-10-02T09:24:41.092Z,10.40
2018-10-02T09:25:49.109Z,10.56
2018-10-02T09:26:57.181Z,10.55
2018-10-02T09:28:05.281Z,10.61
2018-10-02T09:29:13.292Z,10.73
2018-10-02T09:30:21.545Z,10.67
2018-10-02T09:31:29.432Z,10.60
2018-10-02T09:32:37.497Z,10.55
2018-10-02T09:33:45.590Z,10.29
2018-10-02T09:34:53.629Z,10.27
2018-10-02T09:36:01.736Z,10.33
2018-10-02T09:37:09.888Z,10.41
2018-10-02T09:38:17.859Z,10.44
2018-10-02T09:39:25.937Z,10.48
2018-10-02T09:40:33.974Z,10.66
2018-10-02T09:41:42.023Z,10.63
2018-10-02T09:42:50.109Z,10.68
2018-10-02T09:43:58.201Z,10.73
2018-10-02T09:45:06.230Z,10.81
2018-10-02T09:46:14.312Z,10.91
2018-10-02T09:47:22.358Z,10.99
2018-10-02T09:48:30.485Z,11.24
2018-10-02T09:49:38.505Z,11.39
2018-10-02T09:50:46.577Z,11.37
2018-10-02T09:51:54.704Z,11.51
2018-10-02T09:53:02.700Z,11.58
2018-10-02T09:54:10.781Z,11.73
2018-10-02T09:55:18.834Z,11.72
2018-10-02T09:56:26.915Z,11.80
2018-10-02T09:57:34.937Z,11.83
2018-10-02T09:58:43.093Z,11.80
2018-10-02T09:59:51.097Z,11.83
2018-10-02T10:00:59.240Z,11.90
2018-10-02T10:02:07.226Z,11.88
2018-10-02T10:03:15.298Z,11.85
2018-10-02T10:04:23.460Z,12.04
2018-10-02T10:05:31.403Z,12.14
2018-10-02T10:06:39.480Z,12.42
2018-10-02T10:07:47.559Z,12.53
2018-10-02T10:08:55.612Z,12.52
2018-10-02T10:10:03.674Z,12.65
2018-10-02T10:11:11.762Z,12.56
2018-10-02T10:12:19.817Z,12.60
2018-10-02T10:13:27.911Z,12.60
2018-10-02T10:14:35.959Z,12.62
2018-10-02T10:15:44.038Z,12.62
2018-10-02T10:16:52.140Z,12.62
2018-10-02T10:18:00.131Z,12.72
2018-10-02T10:19:08.241Z,12.67
2018-10-02T10:20:16.317Z,12.74
2018-10-02T10:21:24.379Z,12.57
2018-10-02T10:22:32.480Z,12.52
2018-10-02T10:23:40.501Z,12.59
2018-10-02T10:24:48.572Z,12.70
2018-10-02T10:25:56.632Z,12.82
2018-10-02T10:27:04.684Z,12.79
2018-10-02T10:28:12.746Z,12.97
2018-10-02T10:29:20.855Z,12.97
2018-10-02T10:30:28.897Z,12.90
2018-10-02T10:31:36.983Z,12.93
2018-10-02T10:32:45.035Z,13.01
2018-10-02T10:33:53.088Z,13.05
2018-10-02T10:35:01.231Z,12.97
2018-10-02T10:36:09.253Z,13.04
2018-10-02T10:37:17.311Z,13.03
2018-10-02T10:38:25.385Z,13.10
2018-10-02T10:39:33.427Z,13.04
2018-10-02T10:40:41.741Z,13.03
2018-10-02T10:41:49.580Z,13.00
2018-10-02T10:42:57.661Z,13.08
2018-10-02T10:44:05.730Z,13.20
2018-10-02T10:45:13.782Z,13.22
2018-10-02T10:46:21.881Z,13.22
2018-10-02T10:47:29.944Z,13.20
2018-10-02T10:48:37.991Z,13.04
2018-10-02T10:49:46.047Z,12.92
2018-10-02T10:50:54.135Z,13.04
2018-10-02T10:52:02.192Z,12.92
2018-10-02T10:53:10.251Z,12.87
2018-10-02T10:54:18.328Z,12.87
2018-10-02T10:55:26.396Z,12.85
2018-10-02T10:56:34.500Z,12.79
2018-10-02T10:57:42.517Z,12.72
2018-10-02T10:58:50.620Z,12.75
2018-10-02T10:59:58.673Z,12.67
2018-10-02T11:01:06.732Z,12.74
2018-10-02T11:02:14.804Z,12.77
2018-10-02T11:03:22.844Z,12.82
2018-10-02T11:04:31.572Z,12.85
2018-10-02T11:05:39.037Z,13.00
2018-10-02T11:06:47.069Z,12.97
2018-10-02T11:07:55.231Z,12.96
2018-10-02T11:09:03.188Z,13.01
2018-10-02T11:10:11.270Z,12.96
2018-10-02T11:11:19.347Z,13.05
2018-10-02T11:12:27.393Z,13.10
2018-10-02T11:13:35.473Z,13.25
2018-10-02T11:14:43.525Z,13.36
2018-10-02T11:15:51.583Z,13.38
2018-10-02T11:16:59.667Z,13.45
2018-10-02T11:18:07.734Z,13.57
2018-10-02T11:19:15.783Z,13.70
2018-10-02T11:20:23.863Z,13.77
2018-10-02T11:21:31.938Z,13.84
2018-10-02T11:22:39.972Z,13.85
2018-10-02T11:23:48.098Z,13.85
2018-10-02T11:24:56.166Z,13.79
2018-10-02T11:26:04.185Z,13.87
2018-10-02T11:27:12.272Z,13.81
2018-10-02T11:28:20.326Z,13.85
2018-10-02T11:29:28.400Z,13.87
2018-10-02T11:30:36.482Z,13.92
2018-10-02T11:31:44.611Z,13.92
2018-10-02T11:32:52.588Z,13.92
2018-10-02T11:34:00.694Z,14.00
2018-10-02T11:35:08.733Z,14.02
2018-10-02T11:36:16.791Z,14.07
2018-10-02T11:37:24.965Z,14.06
2018-10-02T11:38:32.935Z,13.97
2018-10-02T11:39:40.978Z,13.84
2018-10-02T11:40:49.065Z,13.64
2018-10-02T11:41:57.167Z,13.49
2018-10-02T11:43:05.204Z,13.42
2018-10-02T11:44:13.446Z,13.42
2018-10-02T11:45:21.337Z,13.25
2018-10-02T11:46:29.404Z,13.15
2018-10-02T11:47:37.496Z,13.14
2018-10-02T11:48:45.536Z,13.07
2018-10-02T11:49:53.753Z,13.08
2018-10-02T11:51:01.722Z,13.08
2018-10-02T11:52:09.745Z,13.15
2018-10-02T11:53:17.826Z,13.17
2018-10-02T11:54:25.874Z,13.30
2018-10-02T11:55:33.965Z,13.39
2018-10-02T11:56:42.033Z,13.38
2018-10-02T11:57:50.078Z,13.38
2018-10-02T11:58:58.169Z,13.41
2018-10-02T12:00:06.205Z,13.41
2018-10-02T12:01:14.475Z,13.51
2018-10-02T12:02:22.424Z,13.49
2018-10-02T12:03:30.492Z,13.46
2018-10-02T12:04:38.487Z,13.49
2018-10-02T12:05:46.564Z,13.55
2018-10-02T12:06:54.743Z,13.48
2018-10-02T12:08:02.705Z,13.54
2018-10-02T12:09:10.954Z,13.36
2018-10-02T12:10:18.817Z,13.32
2018-10-02T12:11:26.975Z,13.33
2018-10-02T12:12:35.185Z,13.42
2018-10-02T12:13:43.378Z,13.42
2018-10-02T12:14:51.247Z,13.30
2018-10-02T12:15:59.157Z,13.33
2018-10-02T12:17:07.212Z,13.39
2018-10-02T12:18:15.273Z,13.44
2018-10-02T12:19:23.369Z,13.36
2018-10-02T12:20:31.428Z,13.42
2018-10-02T12:21:39.503Z,13.51
2018-10-02T12:22:47.566Z,13.28
2018-10-02T12:23:56.230Z,13.28
2018-10-02T12:25:03.728Z,13.23
2018-10-02T12:26:11.760Z,13.19
2018-10-02T12:27:19.855Z,13.17
2018-10-02T12:28:27.883Z,13.12
2018-10-02T12:29:35.959Z,13.05
2018-10-02T12:30:44.003Z,13.14
2018-10-02T12:31:52.077Z,13.19
2018-10-02T12:33:00.146Z,13.20
2018-10-02T12:34:08.323Z,13.11
2018-10-02T12:35:16.285Z,13.11
2018-10-02T12:36:24.369Z,13.22
2018-10-02T12:37:32.409Z,13.25
2018-10-02T12:38:40.596Z,13.17
2018-10-02T12:39:48.568Z,13.26
2018-10-02T12:40:56.838Z,13.25
2018-10-02T12:42:04.709Z,13.38
2018-10-02T12:43:12.803Z,13.36
2018-10-02T12:44:20.842Z,13.41
2018-10-02T12:45:28.901Z,13.32
2018-10-02T12:46:36.965Z,13.39
2018-10-02T12:47:45.029Z,13.38
2018-10-02T12:48:53.164Z,13.42
2018-10-02T12:50:01.181Z,13.44
2018-10-02T12:51:09.259Z,13.54
2018-10-02T12:52:17.472Z,13.45
2018-10-02T12:53:25.376Z,13.49
2018-10-02T12:54:33.406Z,13.54
2018-10-02T12:55:41.505Z,13.49
2018-10-02T12:56:49.562Z,13.55
2018-10-02T12:57:57.649Z,13.51
2018-10-02T12:59:05.683Z,13.46
2018-10-02T13:00:13.762Z,13.52
2018-10-02T13:01:21.829Z,13.52
2018-10-02T13:02:29.911Z,13.54
2018-10-02T13:03:37.971Z,13.46
2018-10-02T13:04:46.033Z,13.54
2018-10-02T13:05:54.116Z,13.62
2018-10-02T13:07:02.251Z,13.64
2018-10-02T13:08:10.238Z,13.64
2018-10-02T13:09:18.297Z,13.62
2018-10-02T13:10:26.371Z,13.70
2018-10-02T13:11:34.433Z,13.69
2018-10-02T13:12:42.513Z,13.71
2018-10-02T13:13:50.589Z,13.81
2018-10-02T13:14:58.635Z,13.82
2018-10-02T13:16:06.693Z,13.63
2018-10-02T13:17:14.785Z,13.71
2018-10-02T13:18:22.908Z,13.64
2018-10-02T13:19:30.913Z,13.71
2018-10-02T13:20:38.971Z,13.67
2018-10-02T13:21:47.032Z,13.63
2018-10-02T13:22:55.120Z,13.55
2018-10-02T13:24:03.191Z,13.51
2018-10-02T13:25:11.308Z,13.49
2018-10-02T13:26:19.742Z,13.62
2018-10-02T13:27:27.377Z,13.44
2018-10-02T13:28:35.443Z,13.39
2018-10-02T13:29:43.656Z,13.42
2018-10-02T13:30:51.582Z,13.46
2018-10-02T13:32:03.896Z,13.45
2018-10-02T13:33:11.921Z,13.45
2018-10-02T13:34:20.019Z,13.51
2018-10-02T13:35:29.548Z,13.57
2018-10-02T13:36:36.145Z,13.51
2018-10-02T13:37:44.206Z,13.57
2018-10-02T13:38:52.281Z,13.52
2018-10-02T13:40:00.346Z,13.57
2018-10-02T13:41:08.413Z,13.52
2018-10-02T13:42:16.500Z,13.45
2018-10-02T13:43:24.600Z,13.42
2018-10-02T13:44:32.688Z,13.38
2018-10-02T13:45:40.679Z,13.30
2018-10-02T13:46:48.779Z,13.32
2018-10-02T13:47:56.810Z,13.29
2018-10-02T13:49:04.890Z,13.33
2018-10-02T13:50:12.954Z,13.33
2018-10-02T13:51:21.016Z,13.39
2018-10-02T13:52:29.128Z,13.36
2018-10-02T13:53:37.153Z,13.26
2018-10-02T13:54:45.223Z,13.30
2018-10-02T13:55:53.292Z,13.30
2018-10-02T13:57:01.628Z,13.33
2018-10-02T13:58:09.422Z,13.29
2018-10-02T13:59:17.495Z,13.33
2018-10-02T14:00:25.557Z,13.20
2018-10-02T14:01:33.597Z,13.26
2018-10-02T14:02:41.685Z,13.26
2018-10-02T14:03:49.772Z,13.19
2018-10-02T14:04:57.863Z,13.10
2018-10-02T14:06:05.882Z,13.08
2018-10-02T14:07:13.957Z,13.14
2018-10-02T14:08:22.057Z,12.96
2018-10-02T14:09:30.071Z,13.04
2018-10-02T14:10:38.156Z,13.05
2018-10-02T14:11:46.213Z,13.04
2018-10-02T14:12:54.277Z,13.07
2018-10-02T14:14:02.352Z,13.04
2018-10-02T14:15:10.472Z,12.97
2018-10-02T14:16:18.480Z,13.10
2018-10-02T14:17:26.568Z,13.19
2018-10-02T14:18:34.636Z,13.12
2018-10-02T14:19:42.696Z,13.12
2018-10-02T14:20:50.765Z,13.05
2018-10-02T14:21:58.824Z,13.11
2018-10-02T14:23:06.868Z,13.17
2018-10-02T14:24:14.957Z,13.04
2018-10-02T14:25:23.004Z,13.08
2018-10-02T14:26:31.077Z,13.05
2018-10-02T14:27:39.138Z,13.03
2018-10-02T14:28:47.194Z,13.07
2018-10-02T14:29:55.273Z,13.11
2018-10-02T14:31:03.351Z,13.04
2018-10-02T14:32:11.414Z,12.97
2018-10-02T14:33:19.470Z,13.03
2018-10-02T14:34:27.551Z,13.01
2018-10-02T14:35:35.603Z,13.05
2018-10-02T14:36:43.754Z,13.00
2018-10-02T14:37:51.762Z,13.10
2018-10-02T14:38:59.847Z,12.96
2018-10-02T14:40:07.901Z,12.90
2018-10-02T14:41:15.949Z,12.83
2018-10-02T14:42:24.015Z,12.86
2018-10-02T14:43:32.096Z,12.92
2018-10-02T14:44:40.153Z,12.87
2018-10-02T14:45:48.205Z,12.79
2018-10-02T14:46:56.282Z,12.86
2018-10-02T14:49:12.387Z,13.01
2018-10-02T14:50:20.481Z,12.90
2018-10-02T14:51:28.532Z,12.83
2018-10-02T14:52:36.604Z,12.87
2018-10-02T14:53:44.680Z,12.79
2018-10-02T14:54:55.552Z,12.79
2018-10-02T14:56:03.614Z,12.68
2018-10-02T14:57:11.847Z,12.60